Hico, West Virginia
Current Conditions -  °F | °C
As of 8:51 PM on Wednesday 22 Oct 2014 (Local Time) from KBKW Reporting Station
Overcast Overcast  
Wind Chill:   Ceiling: 600
Heat Index:   Visibility: 7mi
Dew Point:   Wind: 9mph
Humidity: 89%   Direction: 330°NNW
Pressure: 30.17"   Gusts: NA
Location:  38.12°N, 81.01°W
Report Text: KBKW 230051Z AUTO 33008KT 7SM OVC006 06/04 A3017 RMK AO2 RAB13E48 SLP227 P0000 T00610044 TSNO
Loading
Personal Weather Stations






























Interactive Weather Map
Tropical Storm Tracking
New forecast layout! Learn more

10-Day Weather Forecast

Advertisements
Track Severe Weather on mobile